createdAt,value
2018-06-15T11:59:56.708Z,98747.39
2018-06-15T12:02:24.787Z,98741.50
2018-06-15T12:04:52.876Z,98747.47
2018-06-15T12:07:20.972Z,98756.78
2018-06-15T12:09:49.136Z,98758.96
2018-06-15T12:12:17.217Z,98752.25
2018-06-15T12:14:45.290Z,98753.80
2018-06-15T12:17:13.407Z,98750.23
2018-06-15T12:19:41.667Z,98755.70
2018-06-15T12:22:10.461Z,98753.22
2018-06-15T12:24:38.515Z,98757.32
2018-06-15T12:27:06.746Z,98756.03
2018-06-15T12:29:34.949Z,98752.39
2018-06-15T12:32:03.052Z,98753.28
2018-06-15T12:34:31.233Z,98749.07
2018-06-15T12:36:59.317Z,98751.69
2018-06-15T12:39:27.600Z,98760.22
2018-06-15T12:41:55.839Z,98763.92
2018-06-15T12:44:24.544Z,98757.15
2018-06-15T12:46:52.924Z,98762.33
2018-06-15T12:49:20.996Z,98760.89
2018-06-15T12:51:49.133Z,98753.27
2018-06-15T12:54:17.268Z,98746.39
2018-06-15T12:56:45.401Z,98747.50
2018-06-15T12:59:13.713Z,98755.77
2018-06-15T13:01:41.913Z,98742.42
2018-06-15T13:04:10.169Z,98741.38
2018-06-15T13:06:38.473Z,98744.45
2018-06-15T13:09:08.727Z,98738.70
2018-06-15T13:11:36.805Z,98734.89
2018-06-15T13:14:05.036Z,98740.66
2018-06-15T13:16:33.136Z,98740.20
2018-06-15T13:19:01.312Z,98736.56
2018-06-15T13:21:29.820Z,98740.41
2018-06-15T13:24:03.988Z,98737.38
2018-06-15T13:26:32.060Z,98742.39
2018-06-15T13:29:00.252Z,98736.05
2018-06-15T13:31:28.387Z,98739.31
2018-06-15T13:33:56.650Z,98740.80
2018-06-15T13:36:25.020Z,98735.33
2018-06-15T13:38:53.111Z,98739.86
2018-06-15T13:41:21.174Z,98737.16
2018-06-15T13:43:49.259Z,98739.03
2018-06-15T13:46:17.405Z,98729.69
2018-06-15T13:48:46.010Z,98726.38
2018-06-15T13:51:14.389Z,98723.74
2018-06-15T13:53:42.606Z,98724.43
2018-06-15T13:56:10.896Z,98728.63
2018-06-15T13:58:39.237Z,98735.70
2018-06-15T14:03:59.788Z,98732.83
2018-06-15T14:06:27.877Z,98737.38
2018-06-15T14:08:56.316Z,98737.20
2018-06-15T14:14:17.021Z,98733.97
2018-06-15T14:16:45.312Z,98731.70
2018-06-15T14:19:13.619Z,98733.55
2018-06-15T14:21:41.696Z,98731.62
2018-06-15T14:24:09.864Z,98734.09
2018-06-15T14:26:38.063Z,98730.98
2018-06-15T14:32:21.034Z,98728.72
2018-06-15T14:34:50.006Z,98722.61
2018-06-15T14:37:18.215Z,98719.01
2018-06-15T14:39:46.332Z,98713.02
2018-06-15T14:42:14.516Z,98711.47
2018-06-15T14:44:42.684Z,98712.79
2018-06-15T14:47:10.875Z,98708.91
2018-06-15T14:49:39.101Z,98708.61
2018-06-15T14:52:07.197Z,98709.42
2018-06-15T14:54:35.947Z,98701.16
2018-06-15T14:57:04.227Z,98709.09
2018-06-15T14:59:32.752Z,98696.39
2018-06-15T15:02:00.849Z,98699.98
2018-06-15T15:04:28.952Z,98701.36
2018-06-15T15:06:57.331Z,98702.05
2018-06-15T15:09:25.679Z,98697.67
2018-06-15T15:11:53.868Z,98693.56
2018-06-15T15:14:21.964Z,98701.50
2018-06-15T15:16:51.872Z,98700.90
2018-06-15T15:19:19.995Z,98689.15
2018-06-15T15:21:48.120Z,98696.33
2018-06-15T15:24:16.258Z,98696.39
2018-06-15T15:26:44.572Z,98694.27
2018-06-15T15:32:06.118Z,98687.00
2018-06-15T15:34:34.412Z,98694.23
2018-06-15T15:37:02.649Z,98689.48
2018-06-15T15:39:31.035Z,98690.92
2018-06-15T15:44:51.595Z,98693.62
2018-06-15T15:47:19.696Z,98687.42
2018-06-15T15:49:48.009Z,98687.80
2018-06-15T15:52:16.363Z,98681.43
2018-06-15T15:54:44.565Z,98677.12
2018-06-15T15:57:12.803Z,98680.52
2018-06-15T15:59:41.085Z,98678.20
2018-06-15T16:02:09.380Z,98682.66
2018-06-15T16:04:37.792Z,98675.03
2018-06-15T16:07:05.932Z,98674.25
2018-06-15T16:09:34.003Z,98675.51
2018-06-15T16:12:02.099Z,98681.22
2018-06-15T16:14:30.480Z,98668.78
2018-06-15T16:16:58.576Z,98670.42
2018-06-15T16:19:26.683Z,98678.05
2018-06-15T16:21:55.058Z,98666.75
2018-06-15T16:24:23.581Z,98669.67
2018-06-15T16:26:51.708Z,98673.75
2018-06-15T16:29:20.757Z,98665.92
2018-06-15T16:31:49.052Z,98672.89
2018-06-15T16:34:17.127Z,98662.84
2018-06-15T16:36:45.260Z,98659.62
2018-06-15T16:39:13.327Z,98667.58
2018-06-15T16:41:41.619Z,98664.96
2018-06-15T16:44:09.697Z,98669.00
2018-06-15T16:46:37.772Z,98663.45
2018-06-15T16:49:05.840Z,98665.61
2018-06-15T16:51:34.154Z,98677.13
2018-06-15T16:54:02.213Z,98674.43
2018-06-15T16:56:30.400Z,98672.08
2018-06-15T16:58:58.496Z,98667.55
2018-06-15T17:01:26.575Z,98667.71
2018-06-15T17:03:54.767Z,98670.47
2018-06-15T17:06:22.868Z,98676.34
2018-06-15T17:08:50.953Z,98674.64
2018-06-15T17:11:19.023Z,98680.18
2018-06-15T17:13:47.204Z,98686.66
2018-06-15T17:16:15.324Z,98685.55
2018-06-15T17:18:43.422Z,98679.93
2018-06-15T17:21:11.481Z,98679.55
2018-06-15T17:23:39.788Z,98680.66
2018-06-15T17:26:07.799Z,98684.45
2018-06-15T17:28:35.884Z,98682.98
2018-06-15T17:31:04.179Z,98683.74
2018-06-15T17:33:32.276Z,98684.85
2018-06-15T17:36:00.356Z,98687.34
2018-06-15T17:38:28.577Z,98682.87
2018-06-15T17:40:56.908Z,98686.97
2018-06-15T17:43:25.106Z,98690.14
2018-06-15T17:45:53.213Z,98686.97
2018-06-15T17:48:21.304Z,98692.17
2018-06-15T17:50:49.471Z,98689.25
2018-06-15T17:53:17.787Z,98693.28
2018-06-15T17:55:46.056Z,98693.17
2018-06-15T17:58:14.334Z,98688.67
2018-06-15T18:00:42.711Z,98695.05
2018-06-15T18:03:10.878Z,98701.65
2018-06-15T18:05:39.394Z,98704.03
2018-06-15T18:08:07.992Z,98698.47
2018-06-15T18:10:36.392Z,98702.35
2018-06-15T18:13:04.689Z,98705.16
2018-06-15T18:15:32.956Z,98698.13
2018-06-15T18:18:01.926Z,98699.36
2018-06-15T18:20:30.297Z,98698.10
2018-06-15T18:22:58.517Z,98695.75
2018-06-15T18:25:26.876Z,98707.67
2018-06-15T18:27:55.396Z,98703.15
2018-06-15T18:30:24.096Z,98702.64
2018-06-15T18:32:52.207Z,98708.11
2018-06-15T18:35:20.883Z,98704.04
2018-06-15T18:37:49.139Z,98708.14
2018-06-15T18:40:17.678Z,98704.27
2018-06-15T18:42:46.020Z,98709.59
2018-06-15T18:45:14.536Z,98707.83
2018-06-15T18:47:42.688Z,98709.31
2018-06-15T18:50:10.838Z,98714.50
2018-06-15T18:52:39.616Z,98711.26
2018-06-15T18:55:08.226Z,98706.27
2018-06-15T18:57:36.555Z,98709.84
2018-06-15T19:00:05.460Z,98705.45
2018-06-15T19:02:33.903Z,98709.59
2018-06-15T19:05:02.338Z,98711.48
2018-06-15T19:07:30.518Z,98702.38
2018-06-15T19:09:59.853Z,98704.13
2018-06-15T19:12:30.296Z,98708.46
2018-06-15T19:14:59.550Z,98707.23
2018-06-15T19:17:28.600Z,98709.42
2018-06-15T19:19:57.895Z,98713.67
2018-06-15T19:22:26.049Z,98712.20
2018-06-15T19:24:54.250Z,98716.80
2018-06-15T19:27:22.439Z,98710.98
2018-06-15T19:29:51.953Z,98716.61
2018-06-15T19:32:21.355Z,98713.34
2018-06-15T19:34:49.642Z,98715.78
2018-06-15T19:37:18.134Z,98718.91
2018-06-15T19:40:00.337Z,98718.34
2018-06-15T19:42:28.496Z,98724.47
2018-06-15T19:44:56.679Z,98723.36
2018-06-15T19:47:25.568Z,98721.72
2018-06-15T19:49:53.760Z,98732.95
2018-06-15T19:52:26.008Z,98726.01
2018-06-15T19:54:54.280Z,98733.97
2018-06-15T19:57:23.009Z,98736.52
2018-06-15T19:59:51.999Z,98735.76
2018-06-15T20:02:21.463Z,98734.45
2018-06-15T20:04:49.654Z,98738.27
2018-06-15T20:07:18.028Z,98738.48
2018-06-15T20:09:47.156Z,98739.89
2018-06-15T20:12:15.772Z,98734.56
2018-06-15T20:15:00.845Z,98735.55
2018-06-15T20:17:29.236Z,98742.22
2018-06-15T20:19:57.602Z,98738.97
2018-06-15T20:22:25.952Z,98744.70
2018-06-15T20:30:56.728Z,98755.30
2018-06-15T20:33:27.061Z,98754.72
2018-06-15T20:46:49.537Z,98752.34
2018-06-15T20:52:10.976Z,98754.88
2018-06-15T20:54:49.988Z,98755.87
2018-06-15T20:57:25.473Z,98755.88
2018-06-15T20:59:55.670Z,98758.03
2018-06-15T21:02:46.151Z,98753.07
2018-06-15T21:05:20.257Z,98749.73
2018-06-15T21:07:53.834Z,98752.75
2018-06-15T21:10:38.513Z,98751.42
2018-06-15T21:13:28.336Z,98751.06
2018-06-15T21:16:10.285Z,98748.27
2018-06-15T21:18:41.085Z,98748.92
2018-06-15T21:21:45.129Z,98760.53
2018-06-15T21:24:47.065Z,98754.90
2018-06-15T21:27:17.165Z,98748.09
2018-06-15T21:29:46.992Z,98747.25
2018-06-15T21:32:17.416Z,98743.59
2018-06-15T21:34:46.476Z,98749.74
2018-06-15T21:37:17.236Z,98738.63
2018-06-15T21:39:55.953Z,98745.77
2018-06-15T21:42:31.341Z,98741.45
2018-06-15T21:50:56.876Z,98744.77
2018-06-15T21:56:12.409Z,98745.52
2018-06-15T21:58:46.759Z,98754.61
2018-06-15T22:02:50.504Z,98752.25
2018-06-15T22:05:26.016Z,98747.58
2018-06-15T22:07:55.906Z,98743.72
2018-06-15T22:10:26.852Z,98747.36
2018-06-15T22:16:00.026Z,98746.34
2018-06-15T22:18:29.409Z,98749.64
2018-06-15T22:21:05.547Z,98747.00
2018-06-15T22:23:38.629Z,98745.19
2018-06-15T22:26:08.401Z,98747.52
2018-06-15T22:28:52.398Z,98749.13
2018-06-15T22:31:21.230Z,98747.27
2018-06-15T22:33:50.573Z,98748.89
2018-06-15T22:36:20.581Z,98750.06
2018-06-15T22:38:50.657Z,98749.57
2018-06-15T22:41:22.420Z,98748.92
2018-06-15T22:46:37.712Z,98746.55
2018-06-15T22:49:07.095Z,98750.98
2018-06-15T22:51:35.952Z,98748.95
2018-06-15T23:28:39.510Z,98749.09
2018-06-15T23:31:10.029Z,98752.84
2018-06-15T23:33:45.748Z,98755.00
2018-06-15T23:36:15.660Z,98747.20
2018-06-15T23:38:44.354Z,98751.81
2018-06-15T23:41:23.448Z,98753.56
2018-06-15T23:44:03.878Z,98751.34
2018-06-15T23:46:37.610Z,98751.17
2018-06-15T23:49:13.339Z,98751.81
2018-06-15T23:51:56.356Z,98749.59
2018-06-15T23:54:25.778Z,98752.32
2018-06-15T23:56:57.412Z,98746.02
2018-06-15T23:59:34.393Z,98745.17
